createdAt,value
2022-10-02T00:03:14.991Z,10.63
2022-10-02T00:07:55.840Z,6.50
2022-10-02T00:12:11.668Z,5.18
2022-10-02T00:16:29.207Z,6.03
2022-10-02T00:20:53.604Z,3.45
2022-10-02T00:25:23.572Z,3.47
2022-10-02T00:29:44.406Z,3.30
2022-10-02T00:34:21.445Z,4.72
2022-10-02T00:38:44.541Z,3.28
2022-10-02T00:43:33.595Z,3.33
2022-10-02T00:48:07.773Z,5.20
2022-10-02T00:52:37.839Z,4.82
2022-10-02T00:57:32.640Z,3.47
2022-10-02T01:01:58.588Z,7.10
2022-10-02T01:06:11.241Z,4.47
2022-10-02T01:10:27.690Z,15.07
2022-10-02T01:14:40.650Z,9.10
2022-10-02T01:18:52.241Z,4.57
2022-10-02T01:23:16.977Z,9.30
2022-10-02T01:27:28.446Z,10.65
2022-10-02T01:31:39.962Z,8.25
2022-10-02T01:35:51.586Z,10.77
2022-10-02T01:40:09.213Z,9.50
2022-10-02T01:44:21.510Z,12.65
2022-10-02T01:48:45.923Z,13.77
2022-10-02T01:53:23.747Z,16.25
2022-10-02T01:57:59.663Z,15.63
2022-10-02T02:02:19.794Z,16.15
2022-10-02T02:06:47.853Z,18.35
2022-10-02T02:11:13.301Z,17.52
2022-10-02T02:15:34.040Z,22.00
2022-10-02T02:19:55.966Z,14.70
2022-10-02T02:24:18.434Z,28.77
2022-10-02T02:28:32.509Z,22.13
2022-10-02T02:32:55.645Z,17.38
2022-10-02T02:37:13.761Z,19.20
2022-10-02T02:41:28.329Z,19.73
2022-10-02T02:45:49.015Z,15.20
2022-10-02T02:50:06.362Z,14.35
2022-10-02T02:54:26.163Z,16.42
2022-10-02T02:58:49.502Z,15.95
2022-10-02T03:03:01.085Z,11.75
2022-10-02T03:07:17.320Z,15.15
2022-10-02T03:12:00.971Z,17.10
2022-10-02T03:16:42.395Z,23.02
2022-10-02T03:21:02.301Z,12.02
2022-10-02T03:25:31.751Z,14.20
2022-10-02T03:29:49.754Z,20.92
2022-10-02T03:34:03.180Z,9.82
2022-10-02T03:38:15.932Z,8.75
2022-10-02T03:42:32.984Z,12.73
2022-10-02T03:46:44.446Z,9.95
2022-10-02T03:50:55.901Z,9.53
2022-10-02T03:55:35.899Z,12.40
2022-10-02T03:59:53.268Z,17.40
2022-10-02T04:04:17.718Z,15.47
2022-10-02T04:08:38.624Z,12.20
2022-10-02T04:12:57.590Z,12.35
2022-10-02T04:17:15.727Z,14.63
2022-10-02T04:21:42.203Z,12.37
2022-10-02T04:26:06.025Z,13.50
2022-10-02T04:30:19.492Z,20.10
2022-10-02T04:34:30.933Z,11.73
2022-10-02T04:39:12.167Z,17.38
2022-10-02T04:43:44.872Z,20.02
2022-10-02T04:48:16.699Z,18.77
2022-10-02T04:52:49.414Z,15.33
2022-10-02T04:57:22.195Z,13.70
2022-10-02T05:02:07.157Z,17.10
2022-10-02T05:06:34.074Z,19.27
2022-10-02T05:11:10.955Z,22.57
2022-10-02T05:15:48.332Z,19.33
2022-10-02T05:20:19.418Z,10.80
2022-10-02T05:24:34.876Z,18.40
2022-10-02T05:29:04.544Z,20.37
2022-10-02T05:33:34.598Z,23.30
2022-10-02T05:37:45.953Z,17.80
2022-10-02T05:42:00.359Z,15.30
2022-10-02T05:46:18.951Z,17.50
2022-10-02T05:50:35.052Z,20.33
2022-10-02T05:54:58.525Z,21.87
2022-10-02T05:59:37.771Z,15.97
2022-10-02T06:04:17.386Z,17.03
2022-10-02T06:08:33.473Z,21.67
2022-10-02T06:12:47.912Z,18.23
2022-10-02T06:17:04.239Z,24.73
2022-10-02T06:21:31.284Z,20.92
2022-10-02T06:26:07.606Z,20.63
2022-10-02T06:30:19.818Z,13.75
2022-10-02T06:34:31.389Z,14.73
2022-10-02T06:38:48.903Z,13.63
2022-10-02T06:43:10.605Z,21.85
2022-10-02T06:47:28.152Z,14.23
2022-10-02T06:52:06.716Z,21.98
2022-10-02T06:56:29.955Z,13.82
2022-10-02T07:01:23.906Z,14.07
2022-10-02T07:05:53.296Z,22.15
2022-10-02T07:10:23.720Z,20.27
2022-10-02T07:15:14.026Z,10.65
2022-10-02T07:19:34.642Z,12.63
2022-10-02T07:23:50.306Z,9.57
2022-10-02T07:28:05.798Z,11.05
2022-10-02T07:32:42.257Z,10.25
2022-10-02T07:37:17.654Z,12.45
2022-10-02T07:41:53.190Z,13.02
2022-10-02T07:46:31.619Z,15.10
2022-10-02T07:51:52.494Z,8.60
2022-10-02T07:56:06.445Z,8.73
2022-10-02T08:00:22.585Z,7.13
2022-10-02T08:04:37.227Z,12.68
2022-10-02T08:09:13.709Z,11.85
2022-10-02T08:13:33.511Z,10.60
2022-10-02T08:17:58.680Z,9.82
2022-10-02T08:22:25.796Z,7.57
2022-10-02T08:26:46.114Z,6.30
2022-10-02T08:30:58.705Z,5.72
2022-10-02T08:35:19.407Z,5.35
2022-10-02T08:39:58.404Z,9.60
2022-10-02T08:44:36.018Z,9.65
2022-10-02T08:49:18.844Z,8.13
2022-10-02T08:53:33.264Z,6.88
2022-10-02T08:58:03.398Z,11.27
2022-10-02T09:02:55.333Z,4.95
2022-10-02T09:07:28.153Z,6.55
2022-10-02T09:12:02.428Z,6.72
2022-10-02T09:16:59.122Z,6.00
2022-10-02T09:21:13.404Z,8.80
2022-10-02T09:25:30.916Z,5.97
2022-10-02T09:30:09.862Z,5.75
2022-10-02T09:34:30.236Z,8.05
2022-10-02T09:39:15.880Z,5.28
2022-10-02T09:43:56.313Z,8.65
2022-10-02T09:48:30.316Z,9.75
2022-10-02T09:53:12.656Z,8.40
2022-10-02T09:57:45.208Z,5.30
2022-10-02T10:02:26.100Z,6.30
2022-10-02T10:07:18.898Z,10.40
2022-10-02T10:11:33.748Z,5.65
2022-10-02T10:16:06.579Z,6.65
2022-10-02T10:20:44.130Z,5.95
2022-10-02T10:25:20.887Z,7.13
2022-10-02T10:30:03.868Z,7.00
2022-10-02T10:35:03.514Z,5.32
2022-10-02T10:39:52.463Z,7.35
2022-10-02T10:44:16.178Z,6.38
2022-10-02T10:49:00.497Z,5.13
2022-10-02T10:53:40.769Z,6.63
2022-10-02T10:58:08.648Z,9.88
2022-10-02T11:02:20.132Z,8.20
2022-10-02T11:06:34.660Z,6.38
2022-10-02T11:11:01.236Z,5.03
2022-10-02T11:15:28.874Z,6.38
2022-10-02T11:19:47.588Z,6.68
2022-10-02T11:24:13.535Z,5.13
2022-10-02T11:28:46.973Z,3.10
2022-10-02T11:33:15.100Z,3.55
2022-10-02T11:38:00.613Z,3.78
2022-10-02T11:42:38.316Z,4.40
2022-10-02T11:47:17.979Z,5.63
2022-10-02T11:51:47.631Z,3.72
2022-10-02T11:56:22.944Z,4.57
2022-10-02T12:00:58.858Z,4.43
2022-10-02T12:05:17.893Z,4.05
2022-10-02T12:09:56.898Z,5.95
2022-10-02T12:14:17.208Z,11.18
2022-10-02T12:18:47.250Z,4.15
2022-10-02T12:23:35.869Z,3.50
2022-10-02T12:28:20.079Z,5.13
2022-10-02T12:32:49.854Z,5.28
2022-10-02T12:37:09.584Z,5.13
2022-10-02T12:41:58.854Z,3.50
2022-10-02T12:46:22.520Z,9.40
2022-10-02T12:50:52.994Z,6.05
2022-10-02T12:55:46.482Z,5.82
2022-10-02T13:00:18.551Z,5.90
2022-10-02T13:04:43.761Z,6.60
2022-10-02T13:09:28.143Z,4.18
2022-10-02T13:14:02.124Z,5.88
2022-10-02T13:18:19.686Z,7.10
2022-10-02T13:22:44.552Z,3.90
2022-10-02T13:27:10.461Z,6.40
2022-10-02T13:31:40.645Z,2.80
2022-10-02T13:36:17.052Z,6.22
2022-10-02T13:40:55.087Z,6.10
2022-10-02T13:45:26.323Z,3.65
2022-10-02T13:50:07.153Z,5.70
2022-10-02T13:55:04.998Z,3.78
2022-10-02T13:59:27.486Z,3.92
2022-10-02T14:03:56.588Z,3.53
2022-10-02T14:08:14.038Z,3.30
2022-10-02T14:12:28.461Z,4.68
2022-10-02T14:16:54.668Z,4.75
2022-10-02T14:21:17.901Z,5.05
2022-10-02T14:25:49.168Z,6.85
2022-10-02T14:30:07.230Z,9.43
2022-10-02T14:34:24.770Z,7.40
2022-10-02T14:38:54.993Z,5.28
2022-10-02T14:43:40.409Z,6.30
2022-10-02T14:48:07.244Z,5.15
2022-10-02T14:53:12.921Z,3.65
2022-10-02T14:57:47.945Z,5.20
2022-10-02T15:02:11.569Z,8.27
2022-10-02T15:06:36.499Z,5.05
2022-10-02T15:10:49.250Z,5.82
2022-10-02T15:15:13.822Z,7.10
2022-10-02T15:19:40.043Z,5.60
2022-10-02T15:23:51.686Z,7.65
2022-10-02T15:28:36.262Z,6.65
2022-10-02T15:32:54.860Z,5.65
2022-10-02T15:37:18.436Z,6.32
2022-10-02T15:41:40.583Z,4.30
2022-10-02T15:46:17.504Z,4.95
2022-10-02T15:50:50.184Z,5.50
2022-10-02T15:55:25.096Z,4.18
2022-10-02T15:59:51.900Z,3.42
2022-10-02T16:04:15.156Z,6.70
2022-10-02T16:08:57.724Z,4.90
2022-10-02T16:13:30.765Z,7.63
2022-10-02T16:18:03.093Z,7.22
2022-10-02T16:22:19.923Z,8.98
2022-10-02T16:27:03.286Z,6.25
2022-10-02T16:31:39.055Z,9.82
2022-10-02T16:35:50.682Z,9.80
2022-10-02T16:40:26.832Z,11.43
2022-10-02T16:44:47.273Z,7.57
2022-10-02T16:49:24.724Z,5.90
2022-10-02T16:53:58.182Z,5.45
2022-10-02T16:58:43.590Z,7.70
2022-10-02T17:02:55.139Z,7.47
2022-10-02T17:07:29.852Z,6.90
2022-10-02T17:11:54.095Z,4.47
2022-10-02T17:16:12.201Z,7.85
2022-10-02T17:20:28.296Z,6.30
2022-10-02T17:24:46.661Z,7.55
2022-10-02T17:29:14.714Z,4.80
2022-10-02T17:33:32.256Z,7.43
2022-10-02T17:37:57.094Z,13.68
2022-10-02T17:42:28.286Z,16.80
2022-10-02T17:46:49.726Z,14.55
2022-10-02T17:51:53.732Z,9.95
2022-10-02T17:56:33.194Z,5.88
2022-10-02T18:01:12.355Z,8.75
2022-10-02T18:05:26.772Z,6.32
2022-10-02T18:10:03.574Z,7.65
2022-10-02T18:14:40.059Z,6.88
2022-10-02T18:19:20.888Z,7.32
2022-10-02T18:24:04.161Z,8.60
2022-10-02T18:28:29.901Z,5.10
2022-10-02T18:32:55.726Z,6.95
2022-10-02T18:37:27.914Z,6.35
2022-10-02T18:41:59.580Z,5.28
2022-10-02T18:46:49.733Z,6.03
2022-10-02T18:51:31.914Z,7.47
2022-10-02T18:56:22.181Z,10.57
2022-10-02T19:01:04.710Z,11.32
2022-10-02T19:05:29.265Z,8.50
2022-10-02T19:09:41.448Z,9.77
2022-10-02T19:13:53.017Z,5.20
2022-10-02T19:18:07.029Z,6.40
2022-10-02T19:22:25.871Z,7.50
2022-10-02T19:26:43.970Z,7.68
2022-10-02T19:31:00.920Z,10.07
2022-10-02T19:35:19.291Z,8.07
2022-10-02T19:39:43.033Z,9.38
2022-10-02T19:44:06.862Z,8.27
2022-10-02T19:48:18.979Z,6.03
2022-10-02T19:52:43.532Z,10.00
2022-10-02T19:57:07.813Z,8.73
2022-10-02T20:01:23.203Z,5.35
2022-10-02T20:05:36.926Z,7.60
2022-10-02T20:09:54.499Z,12.82
2022-10-02T20:14:11.238Z,6.82
2022-10-02T20:18:24.552Z,7.68
2022-10-02T20:23:05.281Z,8.43
2022-10-02T20:27:43.165Z,6.57
2022-10-02T20:32:02.002Z,8.20
2022-10-02T20:36:19.575Z,6.60
2022-10-02T20:40:36.639Z,9.23
2022-10-02T20:44:48.592Z,10.55
2022-10-02T20:49:25.085Z,6.17
2022-10-02T20:53:52.485Z,7.68
2022-10-02T20:58:38.253Z,10.10
2022-10-02T21:03:25.199Z,5.72
2022-10-02T21:07:55.745Z,7.90
2022-10-02T21:12:46.527Z,12.02
2022-10-02T21:17:25.018Z,9.48
2022-10-02T21:21:53.692Z,10.02
2022-10-02T21:26:26.963Z,12.82
2022-10-02T21:31:06.409Z,6.60
2022-10-02T21:35:57.216Z,6.47
2022-10-02T21:40:45.753Z,9.83
2022-10-02T21:45:04.358Z,9.77
2022-10-02T21:49:39.306Z,7.83
2022-10-02T21:54:32.848Z,5.90
2022-10-02T21:59:03.088Z,10.82
2022-10-02T22:03:27.667Z,6.80
2022-10-02T22:07:50.687Z,12.30
2022-10-02T22:12:07.723Z,7.73
2022-10-02T22:16:42.188Z,5.40
2022-10-02T22:21:09.008Z,5.20
2022-10-02T22:25:44.999Z,10.77
2022-10-02T22:29:57.775Z,8.00
2022-10-02T22:34:27.463Z,11.73
2022-10-02T22:39:03.453Z,15.20
2022-10-02T22:43:30.786Z,9.87
2022-10-02T22:48:29.263Z,8.27
2022-10-02T22:52:51.084Z,6.30
2022-10-02T22:57:02.545Z,8.40
2022-10-02T23:01:24.723Z,6.50
2022-10-02T23:05:36.223Z,9.53
2022-10-02T23:09:57.674Z,6.43
2022-10-02T23:14:23.147Z,6.87
2022-10-02T23:18:45.569Z,5.13
2022-10-02T23:23:19.263Z,9.13
2022-10-02T23:27:50.333Z,6.90
2022-10-02T23:32:27.768Z,8.00
2022-10-02T23:36:59.334Z,4.53
2022-10-02T23:41:47.851Z,4.87
2022-10-02T23:46:06.697Z,6.07
2022-10-02T23:50:24.031Z,8.93
2022-10-02T23:55:00.827Z,8.97
2022-10-02T23:59:31.285Z,4.17
